Time;durP1;ratioP1;P1;durP2;ratioP2;P2;SDS_P1;SDS_P2;PMS_P1;PMS_P2;Temp;Humidity;BMP_temperature;BMP_pressure;BME280_temperature;BME280_humidity;BME280_pressure;Samples;Min_cycle;Max_cycle;Signal;HPM_P1;HPM_P2
2023/01/05 05:01:12;;;;;;;1.50;0.80;;;11.40;99.90;;;;;;5669802;23;20653;-73
2023/01/05 05:03:39;;;;;;;0.60;0.60;;;11.30;99.90;;;;;;4988579;28;20930;-73
2023/01/05 05:06:06;;;;;;;0.67;0.67;;;11.30;99.90;;;;;;4987804;28;20931;-73
2023/01/05 05:08:33;;;;;;;1.43;0.80;;;11.30;99.90;;;;;;4988414;28;20459;-73
2023/01/05 05:11:00;;;;;;;1.03;0.70;;;11.20;99.90;;;;;;4988673;28;20479;-73
2023/01/05 05:13:26;;;;;;;1.37;0.70;;;11.10;99.90;;;;;;4988431;28;20545;-73
2023/01/05 05:15:53;;;;;;;0.60;0.60;;;11.10;99.90;;;;;;4988141;28;20466;-73
2023/01/05 05:18:21;;;;;;;1.53;1.23;;;11.10;99.90;;;;;;4987962;28;20455;-73
2023/01/05 05:20:51;;;;;;;1.63;1.10;;;11.10;99.90;;;;;;4988445;28;20477;-73
2023/01/05 05:23:19;;;;;;;0.60;0.60;;;11.00;99.90;;;;;;4988394;28;20447;-73
2023/01/05 05:25:48;;;;;;;2.00;0.80;;;11.00;99.90;;;;;;4988414;28;20465;-73
2023/01/05 05:28:15;;;;;;;0.80;0.77;;;10.90;99.90;;;;;;4988008;28;20475;-73
2023/01/05 05:30:42;;;;;;;4.60;1.30;;;10.90;99.90;;;;;;4987898;28;20479;-74
2023/01/05 05:33:09;;;;;;;0.87;0.87;;;10.90;99.90;;;;;;4987853;28;20618;-73
2023/01/05 05:35:37;;;;;;;2.03;0.90;;;10.90;99.90;;;;;;4987834;28;20451;-73
2023/01/05 05:38:03;;;;;;;1.57;0.77;;;10.90;99.90;;;;;;4987404;28;20455;-73
2023/01/05 05:40:30;;;;;;;0.80;0.80;;;10.90;99.90;;;;;;4987523;28;20466;-73
2023/01/05 05:42:57;;;;;;;1.20;0.90;;;10.90;99.90;;;;;;4988170;28;20462;-73
2023/01/05 05:45:24;;;;;;;0.60;0.60;;;10.80;99.90;;;;;;4988134;28;20451;-73
2023/01/05 05:47:50;;;;;;;4.47;0.70;;;10.80;99.90;;;;;;4986911;28;20456;-73
2023/01/05 05:50:17;;;;;;;0.80;0.80;;;10.80;99.90;;;;;;4987957;28;20459;-73
2023/01/05 05:52:45;;;;;;;0.80;0.70;;;10.70;99.90;;;;;;4987780;28;20507;-73
2023/01/05 05:55:12;;;;;;;0.80;0.80;;;10.80;99.90;;;;;;4987792;28;20462;-73
2023/01/05 05:57:39;;;;;;;1.10;0.90;;;10.70;99.90;;;;;;4986982;28;20455;-73
2023/01/05 06:00:07;;;;;;;0.77;0.77;;;10.60;99.90;;;;;;4987563;28;20456;-73
2023/01/05 06:02:34;;;;;;;3.90;1.10;;;10.70;99.90;;;;;;4987254;28;20486;-73
2023/01/05 06:05:00;;;;;;;1.10;1.00;;;10.70;99.90;;;;;;4987734;28;20455;-73
2023/01/05 06:07:27;;;;;;;4.37;1.30;;;10.60;99.90;;;;;;4986733;28;21258;-73
2023/01/05 06:09:55;;;;;;;1.40;1.30;;;10.60;99.90;;;;;;4987801;28;20805;-73
2023/01/05 06:12:22;;;;;;;1.27;1.03;;;10.60;99.90;;;;;;4987530;28;20494;-73
2023/01/05 06:14:49;;;;;;;4.27;1.00;;;10.50;99.90;;;;;;4987208;28;20451;-73
2023/01/05 06:17:15;;;;;;;1.43;1.13;;;10.50;99.90;;;;;;4986218;28;20464;-74
2023/01/05 06:19:42;;;;;;;1.50;1.30;;;10.50;99.90;;;;;;4987529;28;20451;-73
2023/01/05 06:22:09;;;;;;;4.60;1.27;;;10.50;99.90;;;;;;4987017;28;20482;-73
2023/01/05 06:24:36;;;;;;;1.80;1.60;;;10.50;99.90;;;;;;4987072;28;20444;-73
2023/01/05 06:27:04;;;;;;;2.93;1.60;;;10.50;99.90;;;;;;4986282;28;20455;-73
2023/01/05 06:29:30;;;;;;;4.00;1.50;;;10.50;99.90;;;;;;4987137;28;20462;-74
2023/01/05 06:31:57;;;;;;;2.80;1.50;;;10.50;99.90;;;;;;4986983;28;20467;-74
2023/01/05 06:34:24;;;;;;;6.13;1.57;;;10.50;99.90;;;;;;4986920;28;20501;-74
2023/01/05 06:36:51;;;;;;;3.40;1.97;;;10.50;99.90;;;;;;4986600;28;20455;-73
2023/01/05 06:39:17;;;;;;;4.10;1.73;;;10.40;99.90;;;;;;4986985;28;20456;-74
2023/01/05 06:41:44;;;;;;;6.00;1.83;;;10.40;99.90;;;;;;4986630;28;20471;-73
2023/01/05 06:44:12;;;;;;;5.47;2.43;;;10.40;99.90;;;;;;4986681;28;20461;-74
2023/01/05 06:46:39;;;;;;;2.93;1.83;;;10.40;99.90;;;;;;4986220;28;20452;-73
2023/01/05 06:49:07;;;;;;;5.03;1.70;;;10.40;99.90;;;;;;4986497;28;20459;-74
2023/01/05 06:51:33;;;;;;;3.60;2.07;;;10.40;99.90;;;;;;4986906;28;20482;-73
2023/01/05 06:54:00;;;;;;;4.60;2.03;;;10.40;99.90;;;;;;4986812;28;20499;-74
2023/01/05 06:56:27;;;;;;;5.40;2.20;;;10.40;99.90;;;;;;4985964;28;20466;-74
2023/01/05 06:58:54;;;;;;;6.33;2.07;;;10.40;99.90;;;;;;4986760;28;20455;-73
2023/01/05 07:01:22;;;;;;;3.93;2.70;;;10.40;99.90;;;;;;4986375;28;20491;-73
2023/01/05 07:03:49;;;;;;;3.90;2.40;;;10.40;99.90;;;;;;4986297;28;20454;-73
2023/01/05 07:06:16;;;;;;;9.10;2.20;;;10.30;99.90;;;;;;4985847;28;20462;-74
2023/01/05 07:08:43;;;;;;;7.37;2.90;;;10.30;99.90;;;;;;4986695;28;20447;-74
2023/01/05 07:11:10;;;;;;;7.27;2.50;;;10.30;99.90;;;;;;4986575;28;20479;-73
2023/01/05 07:13:36;;;;;;;5.30;2.40;;;10.30;99.90;;;;;;4986358;28;20502;-73
2023/01/05 07:16:03;;;;;;;2.93;2.20;;;10.30;99.90;;;;;;4986083;28;20451;-73
2023/01/05 07:18:32;;;;;;;9.60;2.40;;;10.30;99.90;;;;;;4986009;28;20978;-73
2023/01/05 07:21:00;;;;;;;12.10;3.17;;;10.30;99.90;;;;;;4986206;28;20480;-73
2023/01/05 07:23:27;;;;;;;8.00;3.20;;;10.30;99.90;;;;;;4986157;28;20467;-73
2023/01/05 07:25:54;;;;;;;9.03;2.83;;;10.20;99.90;;;;;;4985755;28;20462;-73
2023/01/05 07:28:21;;;;;;;9.03;2.70;;;10.20;99.90;;;;;;4986289;28;20848;-73
2023/01/05 07:30:51;;;;;;;10.17;2.37;;;10.20;99.90;;;;;;4985983;28;20471;-73
2023/01/05 07:33:18;;;;;;;8.70;2.00;;;10.20;99.90;;;;;;4986108;28;20495;-73
2023/01/05 07:35:46;;;;;;;11.17;2.83;;;10.20;99.90;;;;;;4985985;28;20452;-73
2023/01/05 07:38:13;;;;;;;7.10;2.87;;;10.30;99.90;;;;;;4985350;28;20485;-73
2023/01/05 07:40:39;;;;;;;5.53;2.33;;;10.30;99.90;;;;;;4989932;28;20475;-73
2023/01/05 07:43:06;;;;;;;6.20;2.27;;;10.30;99.90;;;;;;4989864;28;20451;-73
2023/01/05 07:45:33;;;;;;;12.13;2.47;;;10.30;99.90;;;;;;4990176;28;20451;-73
2023/01/05 07:48:01;;;;;;;10.30;2.60;;;10.20;99.90;;;;;;4989438;28;20838;-73
2023/01/05 07:50:28;;;;;;;6.03;2.60;;;10.20;99.90;;;;;;4989904;28;20451;-73
2023/01/05 07:52:58;;;;;;;7.00;2.80;;;10.20;99.90;;;;;;4989672;28;20595;-73
2023/01/05 07:55:24;;;;;;;7.20;2.40;;;10.20;99.90;;;;;;4990155;28;20447;-73
2023/01/05 07:57:51;;;;;;;6.20;2.47;;;10.20;99.90;;;;;;4989257;28;20460;-73
2023/01/05 08:00:18;;;;;;;5.83;2.37;;;10.30;99.90;;;;;;4990149;28;20466;-73
2023/01/05 08:02:45;;;;;;;4.33;2.60;;;10.30;99.90;;;;;;4989591;28;20447;-73
2023/01/05 08:05:12;;;;;;;6.37;2.70;;;10.20;99.90;;;;;;4989458;28;20955;-73
2023/01/05 08:07:39;;;;;;;7.63;2.70;;;10.30;99.90;;;;;;4988764;28;21282;-73
2023/01/05 08:15:43;;;;;;;7.60;2.50;;;10.30;99.90;;;;;;4951270;28;21016;-73
2023/01/05 08:18:10;;;;;;;10.97;3.37;;;10.20;99.90;;;;;;4988580;28;20435;-73
2023/01/05 08:20:36;;;;;;;6.27;2.77;;;10.20;99.90;;;;;;4989344;28;20485;-73
2023/01/05 08:23:03;;;;;;;9.20;2.77;;;10.20;99.90;;;;;;4989310;28;20832;-73
2023/01/05 08:25:31;;;;;;;8.37;2.87;;;10.30;99.90;;;;;;4989130;28;20817;-73
2023/01/05 08:27:59;;;;;;;16.83;2.63;;;10.30;99.90;;;;;;4988743;28;20896;-73
2023/01/05 08:30:26;;;;;;;7.10;2.90;;;10.30;99.90;;;;;;4988986;28;20474;-73
2023/01/05 08:32:53;;;;;;;7.67;3.40;;;10.30;99.90;;;;;;4989429;28;20462;-73
2023/01/05 08:35:20;;;;;;;7.50;3.53;;;10.30;99.90;;;;;;4989093;28;20455;-73
2023/01/05 08:37:46;;;;;;;9.23;2.80;;;10.30;99.90;;;;;;4988182;28;20463;-73
2023/01/05 08:40:13;;;;;;;6.70;2.87;;;10.30;99.90;;;;;;4988990;28;20462;-72
2023/01/05 08:42:41;;;;;;;8.27;3.17;;;10.30;99.90;;;;;;4988710;28;20455;-72
2023/01/05 08:45:09;;;;;;;7.67;2.87;;;10.40;99.90;;;;;;4988665;28;20448;-72
2023/01/05 08:47:36;;;;;;;8.40;2.73;;;10.40;99.90;;;;;;4988369;28;20470;-72
2023/01/05 08:50:03;;;;;;;7.47;2.60;;;10.40;99.90;;;;;;4988820;28;20462;-73
2023/01/05 08:52:30;;;;;;;7.43;3.00;;;10.40;99.90;;;;;;4988873;28;20471;-73
2023/01/05 08:54:56;;;;;;;10.80;2.80;;;10.40;99.90;;;;;;4988591;28;20497;-73
2023/01/05 08:57:23;;;;;;;7.23;2.40;;;10.40;99.90;;;;;;4988081;28;20466;-73
2023/01/05 08:59:51;;;;;;;5.80;2.17;;;10.40;99.90;;;;;;4988898;28;20464;-73
2023/01/05 09:02:18;;;;;;;8.47;2.73;;;10.40;99.90;;;;;;4988475;28;20494;-73
2023/01/05 09:04:45;;;;;;;6.50;2.20;;;10.40;99.90;;;;;;4988567;28;20452;-73
2023/01/05 09:07:12;;;;;;;7.23;1.97;;;10.40;99.90;;;;;;4988188;28;20455;-73
2023/01/05 09:09:39;;;;;;;10.90;2.73;;;10.40;99.90;;;;;;4988807;28;20483;-73
2023/01/05 09:12:06;;;;;;;6.20;2.40;;;10.40;99.90;;;;;;4988206;28;20486;-73
2023/01/05 09:14:33;;;;;;;4.60;2.10;;;10.40;99.90;;;;;;4988188;28;20506;-73
2023/01/05 09:17:01;;;;;;;7.33;2.93;;;10.40;99.90;;;;;;4988079;28;20463;-73
2023/01/05 09:19:28;;;;;;;13.67;2.50;;;10.50;99.90;;;;;;4988326;28;20923;-74
2023/01/05 09:21:55;;;;;;;5.40;2.40;;;10.50;99.90;;;;;;4988339;28;20472;-74
2023/01/05 09:24:21;;;;;;;11.70;2.40;;;10.50;99.90;;;;;;4988510;28;20455;-74
2023/01/05 09:26:49;;;;;;;6.77;2.53;;;10.50;99.90;;;;;;4987889;28;20467;-74
2023/01/05 09:29:15;;;;;;;8.87;2.67;;;10.50;99.90;;;;;;4988099;28;20467;-74
2023/01/05 09:31:43;;;;;;;4.40;1.73;;;10.50;99.90;;;;;;4988186;28;20482;-73
2023/01/05 09:34:11;;;;;;;6.40;2.20;;;10.50;99.90;;;;;;4988100;28;20491;-73
2023/01/05 09:36:38;;;;;;;6.13;1.90;;;10.50;99.90;;;;;;4987288;28;20983;-73
2023/01/05 09:39:06;;;;;;;10.93;2.17;;;10.50;99.90;;;;;;4987741;28;20463;-73
2023/01/05 09:41:36;;;;;;;9.47;2.47;;;10.50;99.90;;;;;;4987852;28;20467;-73
2023/01/05 09:44:06;;;;;;;8.00;2.30;;;10.50;99.90;;;;;;4986677;28;20463;-73
2023/01/05 09:46:38;;;;;;;5.60;2.80;;;10.80;99.90;;;;;;4987418;28;20211;-73
2023/01/05 09:49:07;;;;;;;13.00;2.30;;;10.80;99.90;;;;;;4987806;28;20450;-73
2023/01/05 09:51:35;;;;;;;6.37;2.33;;;10.70;99.90;;;;;;4987588;28;20479;-73
2023/01/05 09:54:02;;;;;;;10.33;2.20;;;10.70;99.90;;;;;;4987947;28;20495;-73
2023/01/05 09:56:32;;;;;;;7.57;2.07;;;10.60;99.90;;;;;;4986949;28;20452;-73
2023/01/05 09:59:05;;;;;;;7.33;2.07;;;10.60;99.90;;;;;;4987532;28;20494;-73
2023/01/05 10:01:36;;;;;;;10.40;2.30;;;10.60;99.90;;;;;;4986512;28;20495;-73
2023/01/05 10:04:05;;;;;;;5.60;2.27;;;10.60;99.90;;;;;;4987347;28;20455;-73
2023/01/05 10:06:37;;;;;;;6.97;1.70;;;10.60;99.90;;;;;;4986752;28;20953;-73
2023/01/05 10:09:06;;;;;;;16.10;2.47;;;10.60;99.90;;;;;;4987424;28;20479;-73
2023/01/05 10:14:30;;;;;;;10.63;2.40;;;10.60;99.90;;;;;;4987237;28;21469;-73
2023/01/05 10:16:57;;;;;;;12.47;2.50;;;10.60;99.90;;;;;;4986730;28;20486;-73
2023/01/05 10:19:24;;;;;;;7.40;2.90;;;10.60;99.90;;;;;;4987148;28;20455;-73
2023/01/05 10:22:04;;;;;;;13.93;2.50;;;10.60;99.90;;;;;;4987320;28;20476;-73
2023/01/05 10:24:43;;;;;;;10.20;2.67;;;10.60;99.90;;;;;;4986890;28;20455;-73
2023/01/05 10:27:15;;;;;;;12.00;3.13;;;10.60;99.90;;;;;;4986323;28;20465;-73
2023/01/05 10:29:45;;;;;;;7.80;2.60;;;10.70;99.90;;;;;;4987152;28;20442;-73
2023/01/05 10:32:22;;;;;;;9.83;2.87;;;10.70;99.90;;;;;;4986742;28;20467;-73
2023/01/05 10:34:56;;;;;;;11.13;2.50;;;10.70;99.90;;;;;;4986594;28;21434;-73
2023/01/05 10:37:51;;;;;;;14.07;2.87;;;10.60;99.90;;;;;;4986135;28;20912;-73
2023/01/05 10:40:41;;;;;;;12.57;3.40;;;10.60;99.90;;;;;;4981089;28;20837;-73
2023/01/05 10:43:33;;;;;;;15.70;2.80;;;10.60;99.90;;;;;;4987077;28;20432;-73
2023/01/05 10:46:01;;;;;;;10.20;2.80;;;10.60;99.90;;;;;;4986022;28;20451;-74
2023/01/05 10:48:30;;;;;;;14.13;3.00;;;10.60;99.90;;;;;;4986815;28;20459;-73
2023/01/05 10:50:58;;;;;;;10.83;3.20;;;10.60;99.90;;;;;;4987036;28;20550;-73
2023/01/05 10:53:28;;;;;;;13.93;3.03;;;10.60;99.90;;;;;;4986617;28;20460;-73
2023/01/05 10:56:02;;;;;;;9.93;2.60;;;10.70;99.90;;;;;;4986042;28;20459;-73
2023/01/05 10:58:30;;;;;;;8.70;2.67;;;10.70;99.90;;;;;;4985960;28;20460;-73
2023/01/05 11:01:01;;;;;;;12.53;2.70;;;10.70;99.90;;;;;;4986313;28;21020;-73
2023/01/05 11:03:35;;;;;;;12.17;3.77;;;10.70;99.90;;;;;;4986375;28;20977;-73
2023/01/05 11:06:03;;;;;;;10.63;3.43;;;10.70;99.90;;;;;;4985854;28;20463;-73
2023/01/05 11:08:32;;;;;;;10.10;3.00;;;10.70;99.90;;;;;;4986384;28;20451;-73
2023/01/05 11:11:00;;;;;;;10.53;3.07;;;10.70;99.90;;;;;;4986276;28;21169;-73
2023/01/05 11:13:32;;;;;;;14.30;2.67;;;10.70;99.90;;;;;;4986242;28;20455;-73
2023/01/05 11:16:03;;;;;;;14.33;3.23;;;10.70;99.90;;;;;;4985722;28;20495;-73
2023/01/05 11:18:34;;;;;;;17.43;4.03;;;10.70;99.90;;;;;;4986312;28;20447;-63
2023/01/05 11:21:12;;;;;;;13.53;4.00;;;10.80;99.90;;;;;;4986138;28;20832;-73
2023/01/05 11:23:42;;;;;;;9.33;3.20;;;10.80;99.90;;;;;;4986341;28;20462;-73
2023/01/05 11:26:22;;;;;;;15.60;3.00;;;10.80;99.90;;;;;;4985943;28;20467;-73
2023/01/05 11:29:04;;;;;;;8.53;2.40;;;10.80;99.90;;;;;;4986529;28;20436;-73
2023/01/05 11:31:36;;;;;;;12.30;4.20;;;10.80;99.90;;;;;;4985895;28;21315;-73
2023/01/05 11:34:08;;;;;;;10.50;3.20;;;10.80;99.90;;;;;;4986163;28;20502;-73
2023/01/05 11:36:35;;;;;;;12.13;3.03;;;10.80;99.90;;;;;;4985410;28;21006;-72
2023/01/05 11:39:03;;;;;;;9.73;3.13;;;10.80;99.90;;;;;;4986153;28;20450;-72
2023/01/05 11:41:30;;;;;;;9.10;3.10;;;10.80;99.90;;;;;;4985740;28;20475;-72
2023/01/05 11:43:59;;;;;;;9.87;2.73;;;10.80;99.90;;;;;;4986090;28;20458;-72
2023/01/05 11:46:38;;;;;;;18.67;3.67;;;10.90;99.90;;;;;;4985395;28;21096;-73
2023/01/05 11:49:06;;;;;;;10.20;2.80;;;10.90;99.90;;;;;;4986296;28;20448;-72
2023/01/05 11:51:34;;;;;;;14.00;4.20;;;10.90;99.90;;;;;;4985724;28;20479;-72
2023/01/05 11:54:01;;;;;;;13.37;3.10;;;11.00;99.90;;;;;;4985491;28;20447;-72
2023/01/05 11:56:29;;;;;;;9.10;2.93;;;11.00;99.90;;;;;;4985148;28;20456;-72
2023/01/05 11:58:57;;;;;;;13.03;3.70;;;10.90;99.90;;;;;;4986042;28;20447;-74
2023/01/05 12:02:06;;;;;;;12.03;2.33;;;11.00;99.90;;;;;;4985969;28;20519;-72
2023/01/05 12:04:54;;;;;;;11.00;2.40;;;10.90;99.90;;;;;;4986211;28;20464;-73
2023/01/05 12:07:30;;;;;;;17.85;3.78;;;10.90;99.90;;;;;;4983830;28;20445;-73
2023/01/05 12:10:02;;;;;;;13.50;3.20;;;11.30;99.90;;;;;;4985991;28;20285;-72
2023/01/05 12:12:45;;;;;;;14.80;3.80;;;11.30;99.90;;;;;;4985926;28;20845;-73
2023/01/05 12:15:35;;;;;;;14.70;3.07;;;11.30;99.90;;;;;;4985302;28;20987;-72
2023/01/05 12:18:16;;;;;;;12.13;2.97;;;11.10;99.90;;;;;;4985296;28;20455;-73
2023/01/05 12:20:55;;;;;;;19.20;3.83;;;11.10;99.90;;;;;;4986000;28;20494;-73
2023/01/05 12:23:49;;;;;;;17.30;2.73;;;11.00;99.90;;;;;;4985889;28;20436;-72
2023/01/05 12:26:24;;;;;;;9.03;2.73;;;10.90;99.90;;;;;;4987143;28;20438;-73
2023/01/05 12:29:21;;;;;;;23.23;3.77;;;11.00;99.90;;;;;;4989355;28;20442;-73
2023/01/05 12:32:04;;;;;;;9.90;3.03;;;10.90;99.90;;;;;;4989168;28;20475;-73
2023/01/05 12:34:51;;;;;;;12.83;3.00;;;10.90;99.90;;;;;;4988884;28;20983;-72
2023/01/05 12:37:29;;;;;;;16.93;3.20;;;10.90;99.90;;;;;;4988292;28;20459;-73
2023/01/05 12:40:21;;;;;;;16.70;3.50;;;10.90;99.90;;;;;;4988984;28;20435;-72
2023/01/05 12:42:58;;;;;;;12.93;3.10;;;10.90;99.90;;;;;;4986285;28;20464;-72
2023/01/05 12:46:01;;;;;;;12.50;3.20;;;10.90;99.90;;;;;;4988984;28;20436;-73
2023/01/05 12:48:32;;;;;;;11.67;3.43;;;10.90;99.90;;;;;;4988962;28;20930;-73
2023/01/05 12:51:06;;;;;;;10.00;4.27;;;10.90;99.90;;;;;;4988973;28;20460;-73
2023/01/05 12:53:43;;;;;;;11.97;2.70;;;10.90;99.90;;;;;;4989110;28;20446;-73
2023/01/05 12:56:19;;;;;;;16.55;3.50;;;10.90;99.90;;;;;;4987676;28;20464;-73
2023/01/05 12:58:55;;;;;;;16.63;3.20;;;11.00;99.90;;;;;;4988684;28;20205;-73
2023/01/05 13:01:27;;;;;;;22.37;2.80;;;11.00;99.90;;;;;;4988295;28;20483;-72
2023/01/05 13:04:00;;;;;;;16.47;4.37;;;10.90;99.90;;;;;;4988191;28;20461;-73
2023/01/05 13:06:30;;;;;;;9.63;2.83;;;10.90;99.90;;;;;;4985172;28;20463;-73
2023/01/05 13:09:02;;;;;;;15.93;3.53;;;10.90;99.90;;;;;;4986064;28;20447;-73
2023/01/05 13:11:34;;;;;;;11.07;2.60;;;10.90;99.90;;;;;;4988022;28;20472;-73
2023/01/05 13:14:05;;;;;;;19.93;3.07;;;10.90;99.90;;;;;;4988455;28;20451;-73
2023/01/05 13:16:39;;;;;;;13.03;2.80;;;10.90;99.90;;;;;;4987861;28;20479;-73
2023/01/05 13:19:13;;;;;;;19.40;3.60;;;10.80;99.90;;;;;;4988355;28;20447;-73
2023/01/05 13:21:42;;;;;;;17.87;3.10;;;10.90;99.90;;;;;;4988685;28;20483;-73
2023/01/05 13:24:13;;;;;;;13.33;3.20;;;10.80;99.90;;;;;;4987985;28;20462;-73
2023/01/05 13:26:40;;;;;;;14.47;3.00;;;10.80;99.90;;;;;;4987787;28;20452;-73
2023/01/05 13:29:11;;;;;;;14.00;3.40;;;10.70;99.90;;;;;;4988066;28;20459;-73
2023/01/05 13:32:08;;;;;;;20.73;4.43;;;10.70;99.90;;;;;;4988067;28;20471;-73
2023/01/05 13:35:03;;;;;;;13.73;2.97;;;10.70;99.90;;;;;;4988409;28;20455;-73
2023/01/05 13:37:53;;;;;;;15.10;3.60;;;10.70;99.90;;;;;;4986222;28;20467;-73
2023/01/05 13:40:51;;;;;;;15.83;3.37;;;10.70;99.90;;;;;;4988212;28;20832;-73
2023/01/05 13:43:36;;;;;;;11.67;3.80;;;10.70;99.90;;;;;;4988206;28;20460;-73
2023/01/05 13:46:25;;;;;;;12.57;3.20;;;10.70;99.90;;;;;;4987287;28;20455;-73
2023/01/05 13:49:31;;;;;;;14.50;3.43;;;10.80;99.90;;;;;;4987744;28;20447;-73
2023/01/05 13:51:59;;;;;;;11.10;3.07;;;10.90;99.90;;;;;;4987409;28;20491;-73
2023/01/05 13:54:39;;;;;;;16.83;2.53;;;10.80;99.90;;;;;;4987780;28;20458;-73
2023/01/05 13:57:08;;;;;;;13.80;3.33;;;10.90;99.90;;;;;;4986971;28;20491;-73
2023/01/05 13:59:36;;;;;;;10.00;2.87;;;10.90;99.90;;;;;;4987363;28;20459;-73
2023/01/05 14:02:04;;;;;;;7.57;2.43;;;11.00;99.90;;;;;;4987406;28;20488;-73
2023/01/05 14:04:36;;;;;;;10.20;2.70;;;10.90;99.90;;;;;;4987698;28;20470;-72
2023/01/05 14:07:06;;;;;;;13.00;3.57;;;10.90;99.90;;;;;;4986966;28;20465;-73
2023/01/05 14:09:38;;;;;;;18.87;4.80;;;10.90;99.90;;;;;;4987490;28;20491;-73
2023/01/05 14:12:42;;;;;;;15.17;3.50;;;10.80;99.90;;;;;;4987399;28;20478;-73
2023/01/05 14:15:38;;;;;;;11.03;3.80;;;10.90;99.90;;;;;;4987636;28;20479;-73
2023/01/05 14:18:06;;;;;;;15.03;3.33;;;10.80;99.90;;;;;;4986809;28;20455;-73
2023/01/05 14:20:38;;;;;;;14.67;3.57;;;10.80;99.90;;;;;;4987016;28;20464;-73
2023/01/05 14:23:43;;;;;;;12.00;3.10;;;10.90;99.90;;;;;;4987440;28;20456;-73
2023/01/05 14:26:10;;;;;;;13.17;3.20;;;10.80;99.90;;;;;;4986401;28;20972;-73
2023/01/05 14:28:47;;;;;;;8.03;2.50;;;10.90;99.90;;;;;;4987274;28;20462;-73
2023/01/05 14:31:48;;;;;;;14.13;2.87;;;10.90;99.90;;;;;;4987092;28;20482;-73
2023/01/05 14:34:16;;;;;;;10.03;3.43;;;10.90;99.90;;;;;;4987291;28;20428;-73
2023/01/05 14:36:52;;;;;;;12.90;3.40;;;10.90;99.90;;;;;;4985959;28;20496;-72
2023/01/05 14:39:26;;;;;;;11.17;3.30;;;10.90;99.90;;;;;;4986794;28;21430;-73
2023/01/05 14:42:00;;;;;;;15.80;3.60;;;11.00;99.90;;;;;;4986966;28;20472;-73
2023/01/05 14:44:31;;;;;;;12.80;3.30;;;10.90;99.90;;;;;;4986763;28;20450;-73
2023/01/05 14:46:59;;;;;;;15.90;2.80;;;11.00;99.90;;;;;;4986215;28;20448;-73
2023/01/05 14:49:32;;;;;;;15.93;3.30;;;11.00;99.90;;;;;;4986437;28;20465;-73
2023/01/05 14:52:01;;;;;;;14.87;3.50;;;11.00;99.90;;;;;;4986774;28;20487;-73
2023/01/05 14:55:08;;;;;;;11.73;3.20;;;11.00;99.90;;;;;;4985923;28;20450;-73
2023/01/05 14:57:38;;;;;;;10.13;3.30;;;11.30;99.90;;;;;;4925694;29;20505;-73
2023/01/05 15:00:13;;;;;;;19.87;2.90;;;11.30;99.90;;;;;;4925803;29;20489;-73
2023/01/05 15:02:50;;;;;;;12.77;3.60;;;11.20;99.90;;;;;;4955380;28;20459;-73
2023/01/05 15:05:18;;;;;;;12.23;2.80;;;11.10;99.90;;;;;;4986508;28;20800;-73
2023/01/05 15:07:56;;;;;;;15.77;3.57;;;11.10;99.90;;;;;;4985814;28;20459;-73
2023/01/05 15:10:49;;;;;;;15.03;3.43;;;11.10;99.90;;;;;;4985948;28;20440;-73
2023/01/05 15:16:57;;;;;;;12.47;3.60;;;11.00;99.90;;;;;;4984948;28;20523;-73
2023/01/05 15:19:44;;;;;;;10.40;3.00;;;11.00;99.90;;;;;;4986400;28;20440;-72
2023/01/05 15:22:27;;;;;;;15.10;3.00;;;10.90;99.90;;;;;;4985868;28;20490;-73
2023/01/05 15:25:15;;;;;;;10.10;3.57;;;10.90;99.90;;;;;;4986066;28;20452;-73
2023/01/05 15:27:57;;;;;;;11.20;2.73;;;11.00;99.90;;;;;;4985652;28;20495;-72
2023/01/05 15:30:48;;;;;;;7.40;2.90;;;11.00;99.90;;;;;;4985116;28;20455;-72
2023/01/05 15:33:18;;;;;;;16.73;3.07;;;11.00;99.90;;;;;;4985387;28;20448;-72
2023/01/05 15:35:52;;;;;;;16.50;3.97;;;11.00;99.90;;;;;;4985810;28;20476;-72
2023/01/05 15:38:21;;;;;;;16.73;3.90;;;11.00;99.90;;;;;;4986144;28;20474;-72
2023/01/05 15:40:52;;;;;;;15.67;3.20;;;11.00;99.90;;;;;;4985202;28;20490;-72
2023/01/05 15:43:19;;;;;;;12.50;3.00;;;11.00;99.90;;;;;;4985246;28;20462;-72
2023/01/05 15:45:52;;;;;;;14.03;3.23;;;11.00;99.90;;;;;;4983933;28;20456;-72
2023/01/05 15:48:27;;;;;;;16.63;3.27;;;10.90;99.90;;;;;;4984714;28;20510;-72
2023/01/05 15:50:57;;;;;;;16.60;3.93;;;10.90;99.90;;;;;;4985392;28;20489;-72
2023/01/05 15:53:27;;;;;;;11.70;3.23;;;10.90;99.90;;;;;;4985159;28;20459;-73
2023/01/05 15:55:56;;;;;;;14.40;4.20;;;10.90;99.90;;;;;;4984318;28;20498;-73
2023/01/05 15:58:24;;;;;;;13.93;2.93;;;10.90;99.90;;;;;;4984857;28;20456;-72
2023/01/05 16:01:02;;;;;;;12.20;3.03;;;10.90;99.90;;;;;;4987034;28;20522;-73
2023/01/05 16:03:31;;;;;;;11.40;3.47;;;10.90;99.90;;;;;;4989748;28;20613;-73
2023/01/05 16:06:00;;;;;;;12.20;3.43;;;10.90;99.90;;;;;;4988618;28;20455;-73
2023/01/05 16:08:27;;;;;;;11.47;3.63;;;10.90;99.90;;;;;;4989069;28;20466;-73
2023/01/05 16:10:59;;;;;;;14.30;4.47;;;10.90;99.90;;;;;;4989150;28;20859;-73
2023/01/05 16:13:32;;;;;;;19.83;4.90;;;10.90;99.90;;;;;;4989221;28;20489;-73
2023/01/05 16:16:01;;;;;;;15.33;4.40;;;10.90;99.90;;;;;;4988799;28;20491;-74
2023/01/05 16:18:32;;;;;;;18.13;3.53;;;10.90;99.90;;;;;;4989494;28;20459;-73
2023/01/05 16:21:04;;;;;;;15.63;5.63;;;10.90;99.90;;;;;;4989367;28;20483;-74
2023/01/05 16:23:36;;;;;;;13.90;4.43;;;10.90;99.90;;;;;;4989176;28;20459;-74
2023/01/05 16:26:04;;;;;;;11.70;3.10;;;10.80;99.90;;;;;;4989054;28;20451;-74
2023/01/05 16:28:31;;;;;;;15.60;5.03;;;10.80;99.90;;;;;;4989595;28;20455;-74
2023/01/05 16:30:58;;;;;;;23.07;5.33;;;10.80;99.90;;;;;;4989212;28;20479;-74
2023/01/05 16:33:33;;;;;;;15.50;4.33;;;10.90;99.90;;;;;;4989119;28;20462;-74
2023/01/05 16:36:13;;;;;;;16.93;4.30;;;10.90;99.90;;;;;;4988785;28;21201;-74
2023/01/05 16:38:40;;;;;;;13.97;3.90;;;10.80;99.90;;;;;;4989256;28;20478;-73
2023/01/05 16:41:15;;;;;;;18.07;4.87;;;10.80;99.90;;;;;;4988972;28;20862;-73
2023/01/05 16:43:44;;;;;;;18.80;4.83;;;10.90;99.90;;;;;;4989139;28;20470;-74
2023/01/05 16:46:34;;;;;;;9.97;4.70;;;10.90;99.90;;;;;;4987994;28;20461;-74
2023/01/05 16:49:05;;;;;;;15.15;4.60;;;10.90;99.90;;;;;;4988507;28;20440;-74
2023/01/05 16:51:41;;;;;;;12.73;4.70;;;11.00;99.90;;;;;;4989002;28;20228;-74
2023/01/05 16:54:15;;;;;;;12.13;4.53;;;11.00;99.90;;;;;;4988751;28;20459;-74
2023/01/05 16:56:54;;;;;;;16.70;4.60;;;11.00;99.90;;;;;;4988560;28;20479;-74
2023/01/05 16:59:34;;;;;;;17.80;4.80;;;10.90;99.90;;;;;;4988520;28;20998;-74
2023/01/05 17:02:01;;;;;;;12.90;5.20;;;10.90;99.90;;;;;;4988953;28;20487;-74
2023/01/05 17:04:28;;;;;;;15.00;4.87;;;10.90;99.90;;;;;;4988557;28;20470;-72
2023/01/05 17:06:56;;;;;;;14.40;4.17;;;10.80;99.90;;;;;;4987746;28;21656;-73
2023/01/05 17:09:26;;;;;;;14.77;4.70;;;10.80;99.90;;;;;;4988464;28;20896;-73
2023/01/05 17:11:54;;;;;;;10.93;4.43;;;10.80;99.90;;;;;;4987699;28;20487;-73
2023/01/05 17:14:22;;;;;;;15.63;5.63;;;10.80;99.90;;;;;;4987395;28;20454;-74
2023/01/05 17:16:48;;;;;;;18.37;5.30;;;10.80;99.90;;;;;;4987537;28;20857;-74
2023/01/05 17:19:18;;;;;;;15.57;5.17;;;10.70;99.90;;;;;;4988195;28;20525;-74
2023/01/05 17:21:50;;;;;;;24.10;5.27;;;10.70;99.90;;;;;;4987479;28;20909;-74
2023/01/05 17:24:17;;;;;;;16.50;5.30;;;10.70;99.90;;;;;;4988118;28;20451;-74
2023/01/05 17:26:44;;;;;;;17.73;5.30;;;10.70;99.90;;;;;;4987054;28;20840;-74
2023/01/05 17:29:19;;;;;;;14.80;4.70;;;10.70;99.90;;;;;;4987787;28;20459;-74
2023/01/05 17:31:46;;;;;;;19.10;4.80;;;10.80;99.90;;;;;;4988058;28;20479;-74
2023/01/05 17:34:13;;;;;;;18.97;8.80;;;10.80;99.90;;;;;;4987559;28;20958;-74
2023/01/05 17:36:40;;;;;;;23.40;12.10;;;10.80;99.90;;;;;;4987065;28;20872;-74
2023/01/05 17:39:07;;;;;;;24.63;9.33;;;10.80;99.90;;;;;;4987548;28;20455;-74
2023/01/05 17:41:34;;;;;;;37.83;13.97;;;10.70;99.90;;;;;;4987576;28;20476;-74
2023/01/05 17:44:00;;;;;;;24.33;10.50;;;10.80;99.90;;;;;;4987769;28;20455;-74
2023/01/05 17:46:31;;;;;;;23.10;10.67;;;10.80;99.90;;;;;;4987065;28;20448;-74
2023/01/05 17:48:59;;;;;;;31.10;14.00;;;10.80;99.90;;;;;;4987469;28;20775;-74
2023/01/05 17:51:27;;;;;;;29.97;12.40;;;10.90;99.90;;;;;;4987476;28;20502;-74
2023/01/05 17:53:54;;;;;;;24.03;10.90;;;10.90;99.90;;;;;;4987483;28;20483;-74
2023/01/05 17:56:21;;;;;;;30.93;10.77;;;10.90;99.90;;;;;;4986727;28;20490;-74
2023/01/05 17:58:47;;;;;;;19.40;6.70;;;10.90;99.90;;;;;;4987120;28;20458;-74
2023/01/05 18:01:14;;;;;;;25.60;6.03;;;10.90;99.90;;;;;;4987126;28;20487;-74
2023/01/05 18:03:42;;;;;;;17.40;6.17;;;10.90;99.90;;;;;;4987394;28;20465;-74
2023/01/05 18:06:09;;;;;;;17.47;6.43;;;10.80;99.90;;;;;;4986454;28;20470;-74
2023/01/05 18:08:36;;;;;;;19.73;5.90;;;10.80;99.90;;;;;;4987274;28;20466;-74
2023/01/05 18:11:05;;;;;;;17.43;6.00;;;10.80;99.90;;;;;;4987445;28;20476;-74
2023/01/05 18:13:33;;;;;;;18.50;6.80;;;10.70;99.90;;;;;;4987047;28;20462;-74
2023/01/05 18:16:04;;;;;;;22.73;7.80;;;10.70;99.90;;;;;;4986162;28;20514;-74